sensor_id;sensor_type;location;lat;lon;timestamp;P1;durP1;ratioP1;P2;durP2;ratioP2
13408;SDS011;6775;49.574;11.170;2023-11-19T00:00:23;2.37;;;2.20;;
13408;SDS011;6775;49.574;11.170;2023-11-19T00:02:53;2.33;;;2.13;;
13408;SDS011;6775;49.574;11.170;2023-11-19T00:05:21;3.30;;;3.00;;
13408;SDS011;6775;49.574;11.170;2023-11-19T00:07:49;2.40;;;2.20;;
13408;SDS011;6775;49.574;11.170;2023-11-19T00:10:17;2.80;;;2.60;;
13408;SDS011;6775;49.574;11.170;2023-11-19T00:12:46;2.77;;;2.50;;
13408;SDS011;6775;49.574;11.170;2023-11-19T00:15:16;3.10;;;2.80;;
13408;SDS011;6775;49.574;11.170;2023-11-19T00:17:46;2.87;;;2.53;;
13408;SDS011;6775;49.574;11.170;2023-11-19T00:20:17;3.10;;;2.80;;
13408;SDS011;6775;49.574;11.170;2023-11-19T00:22:48;3.30;;;2.90;;
13408;SDS011;6775;49.574;11.170;2023-11-19T00:25:18;3.07;;;2.67;;
13408;SDS011;6775;49.574;11.170;2023-11-19T00:27:48;4.63;;;3.37;;
13408;SDS011;6775;49.574;11.170;2023-11-19T00:30:19;2.67;;;2.43;;
13408;SDS011;6775;49.574;11.170;2023-11-19T00:32:47;2.33;;;2.13;;
13408;SDS011;6775;49.574;11.170;2023-11-19T00:35:15;2.33;;;2.10;;
13408;SDS011;6775;49.574;11.170;2023-11-19T00:37:45;3.00;;;2.70;;
13408;SDS011;6775;49.574;11.170;2023-11-19T00:40:14;2.43;;;2.20;;
13408;SDS011;6775;49.574;11.170;2023-11-19T00:42:44;2.80;;;2.30;;
13408;SDS011;6775;49.574;11.170;2023-11-19T00:45:12;3.43;;;2.03;;
13408;SDS011;6775;49.574;11.170;2023-11-19T00:47:40;2.17;;;2.00;;
13408;SDS011;6775;49.574;11.170;2023-11-19T00:50:09;3.47;;;2.23;;
13408;SDS011;6775;49.574;11.170;2023-11-19T00:52:40;2.40;;;2.20;;
13408;SDS011;6775;49.574;11.170;2023-11-19T00:55:09;3.27;;;2.57;;
13408;SDS011;6775;49.574;11.170;2023-11-19T00:57:37;2.30;;;2.10;;
13408;SDS011;6775;49.574;11.170;2023-11-19T01:00:06;2.53;;;2.33;;
13408;SDS011;6775;49.574;11.170;2023-11-19T01:02:44;2.20;;;1.90;;
13408;SDS011;6775;49.574;11.170;2023-11-19T01:05:13;1.90;;;1.80;;
13408;SDS011;6775;49.574;11.170;2023-11-19T01:07:42;1.77;;;1.67;;
13408;SDS011;6775;49.574;11.170;2023-11-19T01:10:10;2.23;;;2.03;;
13408;SDS011;6775;49.574;11.170;2023-11-19T01:12:38;3.77;;;2.20;;
13408;SDS011;6775;49.574;11.170;2023-11-19T01:15:07;1.90;;;1.80;;
13408;SDS011;6775;49.574;11.170;2023-11-19T01:17:36;1.70;;;1.60;;
13408;SDS011;6775;49.574;11.170;2023-11-19T01:20:05;1.90;;;1.70;;
13408;SDS011;6775;49.574;11.170;2023-11-19T01:22:34;1.60;;;1.50;;
13408;SDS011;6775;49.574;11.170;2023-11-19T01:25:04;2.13;;;1.93;;
13408;SDS011;6775;49.574;11.170;2023-11-19T01:27:33;1.60;;;1.50;;
13408;SDS011;6775;49.574;11.170;2023-11-19T01:30:01;2.13;;;1.93;;
13408;SDS011;6775;49.574;11.170;2023-11-19T01:32:30;2.60;;;2.30;;
13408;SDS011;6775;49.574;11.170;2023-11-19T01:34:58;1.80;;;1.70;;
13408;SDS011;6775;49.574;11.170;2023-11-19T01:37:27;2.10;;;1.90;;
13408;SDS011;6775;49.574;11.170;2023-11-19T01:39:55;2.10;;;1.90;;
13408;SDS011;6775;49.574;11.170;2023-11-19T01:42:26;2.40;;;2.20;;
13408;SDS011;6775;49.574;11.170;2023-11-19T01:45:00;1.60;;;1.50;;
13408;SDS011;6775;49.574;11.170;2023-11-19T01:47:29;2.00;;;1.80;;
13408;SDS011;6775;49.574;11.170;2023-11-19T01:49:58;1.97;;;1.80;;
13408;SDS011;6775;49.574;11.170;2023-11-19T01:52:27;1.90;;;1.70;;
13408;SDS011;6775;49.574;11.170;2023-11-19T01:54:55;2.33;;;2.13;;
13408;SDS011;6775;49.574;11.170;2023-11-19T01:57:25;2.27;;;2.07;;
13408;SDS011;6775;49.574;11.170;2023-11-19T01:59:53;2.00;;;1.77;;
13408;SDS011;6775;49.574;11.170;2023-11-19T02:02:21;2.20;;;2.00;;
13408;SDS011;6775;49.574;11.170;2023-11-19T02:04:50;1.80;;;1.60;;
13408;SDS011;6775;49.574;11.170;2023-11-19T02:07:20;1.77;;;1.67;;
13408;SDS011;6775;49.574;11.170;2023-11-19T02:09:48;2.47;;;1.60;;
13408;SDS011;6775;49.574;11.170;2023-11-19T02:12:16;1.80;;;1.70;;
13408;SDS011;6775;49.574;11.170;2023-11-19T02:14:48;1.60;;;1.50;;
13408;SDS011;6775;49.574;11.170;2023-11-19T02:17:25;2.03;;;1.70;;
13408;SDS011;6775;49.574;11.170;2023-11-19T02:19:54;1.50;;;1.40;;
13408;SDS011;6775;49.574;11.170;2023-11-19T02:22:22;1.60;;;1.50;;
13408;SDS011;6775;49.574;11.170;2023-11-19T02:24:51;1.57;;;1.47;;
13408;SDS011;6775;49.574;11.170;2023-11-19T02:27:25;1.70;;;1.60;;
13408;SDS011;6775;49.574;11.170;2023-11-19T02:30:07;1.80;;;1.70;;
13408;SDS011;6775;49.574;11.170;2023-11-19T02:32:38;1.40;;;1.30;;
13408;SDS011;6775;49.574;11.170;2023-11-19T02:35:07;1.40;;;1.30;;
13408;SDS011;6775;49.574;11.170;2023-11-19T02:37:35;1.40;;;1.30;;
13408;SDS011;6775;49.574;11.170;2023-11-19T02:40:04;1.50;;;1.40;;
13408;SDS011;6775;49.574;11.170;2023-11-19T02:42:35;1.87;;;1.60;;
13408;SDS011;6775;49.574;11.170;2023-11-19T02:45:05;1.40;;;1.30;;
13408;SDS011;6775;49.574;11.170;2023-11-19T02:47:36;1.50;;;1.40;;
13408;SDS011;6775;49.574;11.170;2023-11-19T02:50:05;1.30;;;1.20;;
13408;SDS011;6775;49.574;11.170;2023-11-19T02:52:40;1.27;;;1.13;;
13408;SDS011;6775;49.574;11.170;2023-11-19T02:55:08;1.40;;;1.30;;
13408;SDS011;6775;49.574;11.170;2023-11-19T02:57:39;1.30;;;1.20;;
13408;SDS011;6775;49.574;11.170;2023-11-19T03:00:14;1.30;;;1.20;;
13408;SDS011;6775;49.574;11.170;2023-11-19T03:02:43;1.60;;;1.50;;
13408;SDS011;6775;49.574;11.170;2023-11-19T03:05:12;1.30;;;1.20;;
13408;SDS011;6775;49.574;11.170;2023-11-19T03:07:42;1.63;;;1.53;;
13408;SDS011;6775;49.574;11.170;2023-11-19T03:10:11;1.50;;;1.40;;
13408;SDS011;6775;49.574;11.170;2023-11-19T03:12:41;1.10;;;1.00;;
13408;SDS011;6775;49.574;11.170;2023-11-19T03:15:11;1.37;;;1.10;;
13408;SDS011;6775;49.574;11.170;2023-11-19T03:17:41;1.33;;;1.23;;
13408;SDS011;6775;49.574;11.170;2023-11-19T03:20:10;1.47;;;1.37;;
13408;SDS011;6775;49.574;11.170;2023-11-19T03:22:41;1.47;;;1.37;;
13408;SDS011;6775;49.574;11.170;2023-11-19T03:25:10;2.50;;;1.63;;
13408;SDS011;6775;49.574;11.170;2023-11-19T03:27:39;1.50;;;1.37;;
13408;SDS011;6775;49.574;11.170;2023-11-19T03:30:09;1.30;;;1.17;;
13408;SDS011;6775;49.574;11.170;2023-11-19T03:32:39;1.40;;;1.30;;
13408;SDS011;6775;49.574;11.170;2023-11-19T03:35:07;2.27;;;1.47;;
13408;SDS011;6775;49.574;11.170;2023-11-19T03:37:35;2.00;;;1.90;;
13408;SDS011;6775;49.574;11.170;2023-11-19T03:40:04;2.10;;;1.90;;
13408;SDS011;6775;49.574;11.170;2023-11-19T03:42:33;2.30;;;1.97;;
13408;SDS011;6775;49.574;11.170;2023-11-19T03:45:02;1.73;;;1.63;;
13408;SDS011;6775;49.574;11.170;2023-11-19T03:47:30;2.60;;;2.40;;
13408;SDS011;6775;49.574;11.170;2023-11-19T03:50:00;2.77;;;2.50;;
13408;SDS011;6775;49.574;11.170;2023-11-19T03:52:29;3.00;;;2.70;;
13408;SDS011;6775;49.574;11.170;2023-11-19T03:55:08;2.07;;;1.80;;
13408;SDS011;6775;49.574;11.170;2023-11-19T03:57:38;2.20;;;2.00;;
13408;SDS011;6775;49.574;11.170;2023-11-19T04:00:07;2.33;;;2.13;;
13408;SDS011;6775;49.574;11.170;2023-11-19T04:02:37;1.80;;;1.70;;
13408;SDS011;6775;49.574;11.170;2023-11-19T04:05:06;2.03;;;1.70;;
13408;SDS011;6775;49.574;11.170;2023-11-19T04:07:35;2.27;;;2.03;;
13408;SDS011;6775;49.574;11.170;2023-11-19T04:10:04;3.63;;;2.23;;
13408;SDS011;6775;49.574;11.170;2023-11-19T04:12:33;1.63;;;1.53;;
13408;SDS011;6775;49.574;11.170;2023-11-19T04:15:02;2.50;;;2.30;;
13408;SDS011;6775;49.574;11.170;2023-11-19T04:17:32;2.13;;;1.90;;
13408;SDS011;6775;49.574;11.170;2023-11-19T04:20:00;3.10;;;2.13;;
13408;SDS011;6775;49.574;11.170;2023-11-19T04:22:31;2.30;;;2.10;;
13408;SDS011;6775;49.574;11.170;2023-11-19T04:24:59;2.17;;;1.97;;
13408;SDS011;6775;49.574;11.170;2023-11-19T04:27:27;2.50;;;2.30;;
13408;SDS011;6775;49.574;11.170;2023-11-19T04:29:56;2.47;;;2.27;;
13408;SDS011;6775;49.574;11.170;2023-11-19T04:32:24;2.10;;;1.90;;
13408;SDS011;6775;49.574;11.170;2023-11-19T04:34:53;2.00;;;1.80;;
13408;SDS011;6775;49.574;11.170;2023-11-19T04:37:21;1.83;;;1.73;;
13408;SDS011;6775;49.574;11.170;2023-11-19T04:39:50;1.90;;;1.70;;
13408;SDS011;6775;49.574;11.170;2023-11-19T04:42:18;2.30;;;1.80;;
13408;SDS011;6775;49.574;11.170;2023-11-19T04:44:49;1.70;;;1.60;;
13408;SDS011;6775;49.574;11.170;2023-11-19T04:47:17;2.17;;;1.90;;
13408;SDS011;6775;49.574;11.170;2023-11-19T04:49:45;2.30;;;2.10;;
13408;SDS011;6775;49.574;11.170;2023-11-19T04:52:13;2.40;;;2.20;;
13408;SDS011;6775;49.574;11.170;2023-11-19T04:54:41;2.60;;;2.40;;
13408;SDS011;6775;49.574;11.170;2023-11-19T04:57:11;2.60;;;2.40;;
13408;SDS011;6775;49.574;11.170;2023-11-19T04:59:39;4.57;;;2.90;;
13408;SDS011;6775;49.574;11.170;2023-11-19T05:02:08;3.40;;;3.10;;
13408;SDS011;6775;49.574;11.170;2023-11-19T05:04:37;2.97;;;2.67;;
13408;SDS011;6775;49.574;11.170;2023-11-19T05:07:05;3.00;;;2.70;;
13408;SDS011;6775;49.574;11.170;2023-11-19T05:09:33;2.77;;;2.53;;
13408;SDS011;6775;49.574;11.170;2023-11-19T05:12:01;4.10;;;3.70;;
13408;SDS011;6775;49.574;11.170;2023-11-19T05:14:31;3.20;;;2.90;;
13408;SDS011;6775;49.574;11.170;2023-11-19T05:16:58;3.67;;;3.30;;
13408;SDS011;6775;49.574;11.170;2023-11-19T05:19:27;3.50;;;2.80;;
13408;SDS011;6775;49.574;11.170;2023-11-19T05:21:55;3.97;;;3.17;;
13408;SDS011;6775;49.574;11.170;2023-11-19T05:24:23;3.03;;;2.70;;
13408;SDS011;6775;49.574;11.170;2023-11-19T05:26:51;3.17;;;2.87;;
13408;SDS011;6775;49.574;11.170;2023-11-19T05:29:19;3.23;;;2.60;;
13408;SDS011;6775;49.574;11.170;2023-11-19T05:31:49;4.83;;;4.20;;
13408;SDS011;6775;49.574;11.170;2023-11-19T05:34:17;4.37;;;3.93;;
13408;SDS011;6775;49.574;11.170;2023-11-19T05:36:45;5.53;;;4.53;;
13408;SDS011;6775;49.574;11.170;2023-11-19T05:39:13;4.57;;;3.63;;
13408;SDS011;6775;49.574;11.170;2023-11-19T05:41:42;5.27;;;4.30;;
13408;SDS011;6775;49.574;11.170;2023-11-19T05:44:10;4.83;;;4.00;;
13408;SDS011;6775;49.574;11.170;2023-11-19T05:46:38;4.80;;;3.77;;
13408;SDS011;6775;49.574;11.170;2023-11-19T05:49:10;6.37;;;5.03;;
13408;SDS011;6775;49.574;11.170;2023-11-19T05:51:39;6.33;;;4.20;;
13408;SDS011;6775;49.574;11.170;2023-11-19T05:54:08;8.33;;;5.13;;
13408;SDS011;6775;49.574;11.170;2023-11-19T05:56:37;6.80;;;4.53;;
13408;SDS011;6775;49.574;11.170;2023-11-19T05:59:05;4.83;;;3.70;;
13408;SDS011;6775;49.574;11.170;2023-11-19T06:01:41;4.70;;;3.60;;
13408;SDS011;6775;49.574;11.170;2023-11-19T06:04:10;4.10;;;3.33;;
13408;SDS011;6775;49.574;11.170;2023-11-19T06:06:39;4.33;;;3.70;;
13408;SDS011;6775;49.574;11.170;2023-11-19T06:09:07;4.67;;;3.47;;
13408;SDS011;6775;49.574;11.170;2023-11-19T06:11:39;5.93;;;4.17;;
13408;SDS011;6775;49.574;11.170;2023-11-19T06:14:07;5.10;;;3.63;;
13408;SDS011;6775;49.574;11.170;2023-11-19T06:16:35;4.47;;;3.30;;
13408;SDS011;6775;49.574;11.170;2023-11-19T06:19:06;3.17;;;2.73;;
13408;SDS011;6775;49.574;11.170;2023-11-19T06:21:45;3.27;;;2.97;;
13408;SDS011;6775;49.574;11.170;2023-11-19T06:24:13;3.90;;;3.40;;
13408;SDS011;6775;49.574;11.170;2023-11-19T06:26:41;4.43;;;3.37;;
13408;SDS011;6775;49.574;11.170;2023-11-19T06:29:09;3.40;;;2.93;;
13408;SDS011;6775;49.574;11.170;2023-11-19T06:31:40;4.20;;;3.10;;
13408;SDS011;6775;49.574;11.170;2023-11-19T06:34:08;5.13;;;3.70;;
13408;SDS011;6775;49.574;11.170;2023-11-19T06:36:37;3.70;;;3.33;;
13408;SDS011;6775;49.574;11.170;2023-11-19T06:39:07;3.97;;;3.50;;
13408;SDS011;6775;49.574;11.170;2023-11-19T06:41:35;5.33;;;4.40;;
13408;SDS011;6775;49.574;11.170;2023-11-19T06:44:04;6.80;;;5.70;;
13408;SDS011;6775;49.574;11.170;2023-11-19T06:46:32;8.07;;;6.27;;
13408;SDS011;6775;49.574;11.170;2023-11-19T06:49:00;6.17;;;5.00;;
13408;SDS011;6775;49.574;11.170;2023-11-19T06:51:28;4.83;;;4.20;;
13408;SDS011;6775;49.574;11.170;2023-11-19T06:53:57;4.47;;;3.83;;
13408;SDS011;6775;49.574;11.170;2023-11-19T06:56:27;4.17;;;3.70;;
13408;SDS011;6775;49.574;11.170;2023-11-19T06:58:55;6.33;;;4.53;;
13408;SDS011;6775;49.574;11.170;2023-11-19T07:01:23;5.23;;;3.93;;
13408;SDS011;6775;49.574;11.170;2023-11-19T07:03:51;5.87;;;3.60;;
13408;SDS011;6775;49.574;11.170;2023-11-19T07:06:19;4.50;;;3.13;;
13408;SDS011;6775;49.574;11.170;2023-11-19T07:09:00;3.67;;;3.17;;
13408;SDS011;6775;49.574;11.170;2023-11-19T07:11:37;4.47;;;3.17;;
13408;SDS011;6775;49.574;11.170;2023-11-19T07:14:06;3.87;;;2.67;;
13408;SDS011;6775;49.574;11.170;2023-11-19T07:16:35;3.63;;;2.73;;
13408;SDS011;6775;49.574;11.170;2023-11-19T07:19:04;2.53;;;2.33;;
13408;SDS011;6775;49.574;11.170;2023-11-19T07:21:32;3.53;;;2.90;;
13408;SDS011;6775;49.574;11.170;2023-11-19T07:24:02;3.13;;;2.37;;
13408;SDS011;6775;49.574;11.170;2023-11-19T07:26:30;2.97;;;2.53;;
13408;SDS011;6775;49.574;11.170;2023-11-19T07:29:00;3.20;;;2.90;;
13408;SDS011;6775;49.574;11.170;2023-11-19T07:31:28;3.30;;;2.53;;
13408;SDS011;6775;49.574;11.170;2023-11-19T07:33:56;2.50;;;2.30;;
13408;SDS011;6775;49.574;11.170;2023-11-19T07:36:24;2.33;;;2.07;;
13408;SDS011;6775;49.574;11.170;2023-11-19T07:38:52;2.90;;;1.97;;
13408;SDS011;6775;49.574;11.170;2023-11-19T07:41:23;4.37;;;2.77;;
13408;SDS011;6775;49.574;11.170;2023-11-19T07:43:52;4.43;;;3.03;;
13408;SDS011;6775;49.574;11.170;2023-11-19T07:46:22;3.13;;;2.80;;
13408;SDS011;6775;49.574;11.170;2023-11-19T07:48:51;2.97;;;2.40;;
13408;SDS011;6775;49.574;11.170;2023-11-19T07:51:19;2.83;;;2.33;;
13408;SDS011;6775;49.574;11.170;2023-11-19T07:53:47;4.10;;;2.83;;
13408;SDS011;6775;49.574;11.170;2023-11-19T07:56:15;2.60;;;2.40;;
13408;SDS011;6775;49.574;11.170;2023-11-19T07:58:44;2.87;;;2.00;;
13408;SDS011;6775;49.574;11.170;2023-11-19T08:01:12;2.50;;;2.30;;
13408;SDS011;6775;49.574;11.170;2023-11-19T08:03:42;2.30;;;2.00;;
13408;SDS011;6775;49.574;11.170;2023-11-19T08:06:24;2.80;;;2.27;;
13408;SDS011;6775;49.574;11.170;2023-11-19T08:08:52;2.40;;;2.20;;
13408;SDS011;6775;49.574;11.170;2023-11-19T08:11:20;2.50;;;2.30;;
13408;SDS011;6775;49.574;11.170;2023-11-19T08:13:48;4.70;;;4.13;;
13408;SDS011;6775;49.574;11.170;2023-11-19T08:16:16;6.03;;;4.83;;
13408;SDS011;6775;49.574;11.170;2023-11-19T08:18:46;9.40;;;6.03;;
13408;SDS011;6775;49.574;11.170;2023-11-19T08:21:14;8.83;;;6.97;;
13408;SDS011;6775;49.574;11.170;2023-11-19T08:23:42;7.07;;;5.73;;
13408;SDS011;6775;49.574;11.170;2023-11-19T08:26:10;8.53;;;6.10;;
13408;SDS011;6775;49.574;11.170;2023-11-19T08:28:38;7.53;;;4.97;;
13408;SDS011;6775;49.574;11.170;2023-11-19T08:31:06;5.43;;;4.17;;
13408;SDS011;6775;49.574;11.170;2023-11-19T08:33:34;5.70;;;4.47;;
13408;SDS011;6775;49.574;11.170;2023-11-19T08:36:04;3.77;;;3.40;;
13408;SDS011;6775;49.574;11.170;2023-11-19T08:38:33;2.93;;;2.70;;
13408;SDS011;6775;49.574;11.170;2023-11-19T08:41:02;4.00;;;2.87;;
13408;SDS011;6775;49.574;11.170;2023-11-19T08:43:31;2.83;;;2.53;;
13408;SDS011;6775;49.574;11.170;2023-11-19T08:45:59;8.70;;;7.40;;
13408;SDS011;6775;49.574;11.170;2023-11-19T08:48:27;7.47;;;5.63;;
13408;SDS011;6775;49.574;11.170;2023-11-19T08:50:55;7.50;;;5.80;;
13408;SDS011;6775;49.574;11.170;2023-11-19T08:53:24;6.47;;;5.00;;
13408;SDS011;6775;49.574;11.170;2023-11-19T08:55:53;5.67;;;4.00;;
13408;SDS011;6775;49.574;11.170;2023-11-19T08:58:21;4.07;;;3.37;;
13408;SDS011;6775;49.574;11.170;2023-11-19T09:00:49;3.40;;;2.27;;
13408;SDS011;6775;49.574;11.170;2023-11-19T09:03:17;2.70;;;2.10;;
13408;SDS011;6775;49.574;11.170;2023-11-19T09:05:45;2.50;;;2.30;;
13408;SDS011;6775;49.574;11.170;2023-11-19T09:08:13;4.07;;;2.47;;
13408;SDS011;6775;49.574;11.170;2023-11-19T09:10:42;2.47;;;2.10;;
13408;SDS011;6775;49.574;11.170;2023-11-19T09:13:10;1.93;;;1.73;;
13408;SDS011;6775;49.574;11.170;2023-11-19T09:15:38;3.07;;;1.90;;
13408;SDS011;6775;49.574;11.170;2023-11-19T09:18:07;1.57;;;1.40;;
13408;SDS011;6775;49.574;11.170;2023-11-19T09:20:36;2.50;;;1.40;;
13408;SDS011;6775;49.574;11.170;2023-11-19T09:23:05;2.50;;;1.50;;
13408;SDS011;6775;49.574;11.170;2023-11-19T09:25:35;1.40;;;1.30;;
13408;SDS011;6775;49.574;11.170;2023-11-19T09:28:07;1.10;;;1.00;;
13408;SDS011;6775;49.574;11.170;2023-11-19T09:30:35;1.33;;;1.17;;
13408;SDS011;6775;49.574;11.170;2023-11-19T09:33:04;1.17;;;1.00;;
13408;SDS011;6775;49.574;11.170;2023-11-19T09:35:32;1.93;;;1.30;;
13408;SDS011;6775;49.574;11.170;2023-11-19T09:38:00;2.03;;;1.43;;
13408;SDS011;6775;49.574;11.170;2023-11-19T09:40:30;2.60;;;1.93;;
13408;SDS011;6775;49.574;11.170;2023-11-19T09:42:59;1.60;;;1.20;;
13408;SDS011;6775;49.574;11.170;2023-11-19T09:45:29;1.40;;;1.00;;
13408;SDS011;6775;49.574;11.170;2023-11-19T09:48:05;1.27;;;1.00;;
13408;SDS011;6775;49.574;11.170;2023-11-19T09:50:34;1.50;;;0.80;;
13408;SDS011;6775;49.574;11.170;2023-11-19T09:53:02;1.20;;;1.00;;
13408;SDS011;6775;49.574;11.170;2023-11-19T09:55:30;3.57;;;1.00;;
13408;SDS011;6775;49.574;11.170;2023-11-19T09:57:58;1.73;;;1.13;;
13408;SDS011;6775;49.574;11.170;2023-11-19T10:00:30;1.53;;;1.03;;
13408;SDS011;6775;49.574;11.170;2023-11-19T10:02:59;0.90;;;0.80;;
13408;SDS011;6775;49.574;11.170;2023-11-19T10:05:28;1.83;;;0.80;;
13408;SDS011;6775;49.574;11.170;2023-11-19T10:07:56;2.17;;;1.00;;
13408;SDS011;6775;49.574;11.170;2023-11-19T10:10:24;1.23;;;0.77;;
13408;SDS011;6775;49.574;11.170;2023-11-19T10:12:52;0.70;;;0.70;;
13408;SDS011;6775;49.574;11.170;2023-11-19T10:15:24;0.80;;;0.73;;
13408;SDS011;6775;49.574;11.170;2023-11-19T10:17:56;2.07;;;1.00;;
13408;SDS011;6775;49.574;11.170;2023-11-19T10:20:24;0.97;;;0.80;;
13408;SDS011;6775;49.574;11.170;2023-11-19T10:22:53;1.10;;;0.80;;
13408;SDS011;6775;49.574;11.170;2023-11-19T10:25:22;0.97;;;0.87;;
13408;SDS011;6775;49.574;11.170;2023-11-19T10:27:52;1.07;;;1.00;;
13408;SDS011;6775;49.574;11.170;2023-11-19T10:30:21;1.37;;;0.90;;
13408;SDS011;6775;49.574;11.170;2023-11-19T10:35:51;3.47;;;2.33;;
13408;SDS011;6775;49.574;11.170;2023-11-19T10:38:24;2.40;;;1.60;;
13408;SDS011;6775;49.574;11.170;2023-11-19T10:40:53;3.23;;;1.00;;
13408;SDS011;6775;49.574;11.170;2023-11-19T10:43:22;1.87;;;1.00;;
13408;SDS011;6775;49.574;11.170;2023-11-19T10:45:51;1.47;;;0.80;;
13408;SDS011;6775;49.574;11.170;2023-11-19T10:48:20;0.97;;;0.90;;
13408;SDS011;6775;49.574;11.170;2023-11-19T10:50:53;1.00;;;0.73;;
13408;SDS011;6775;49.574;11.170;2023-11-19T10:53:22;0.63;;;0.63;;
13408;SDS011;6775;49.574;11.170;2023-11-19T10:55:53;0.77;;;0.77;;
13408;SDS011;6775;49.574;11.170;2023-11-19T10:58:26;1.87;;;0.90;;
13408;SDS011;6775;49.574;11.170;2023-11-19T11:01:01;0.73;;;0.60;;
13408;SDS011;6775;49.574;11.170;2023-11-19T11:03:35;0.80;;;0.80;;
13408;SDS011;6775;49.574;11.170;2023-11-19T11:06:08;0.70;;;0.60;;
13408;SDS011;6775;49.574;11.170;2023-11-19T11:08:37;3.10;;;0.90;;
13408;SDS011;6775;49.574;11.170;2023-11-19T11:11:07;3.40;;;1.03;;
13408;SDS011;6775;49.574;11.170;2023-11-19T11:13:37;0.70;;;0.60;;
13408;SDS011;6775;49.574;11.170;2023-11-19T11:16:09;0.90;;;0.60;;
13408;SDS011;6775;49.574;11.170;2023-11-19T11:18:39;0.60;;;0.47;;
13408;SDS011;6775;49.574;11.170;2023-11-19T11:21:08;0.63;;;0.50;;
13408;SDS011;6775;49.574;11.170;2023-11-19T11:23:56;0.60;;;0.40;;
13408;SDS011;6775;49.574;11.170;2023-11-19T11:26:50;1.30;;;0.50;;
13408;SDS011;6775;49.574;11.170;2023-11-19T11:29:55;0.50;;;0.50;;
13408;SDS011;6775;49.574;11.170;2023-11-19T11:32:39;0.50;;;0.43;;
13408;SDS011;6775;49.574;11.170;2023-11-19T11:35:27;1.87;;;1.00;;
13408;SDS011;6775;49.574;11.170;2023-11-19T11:38:09;6.63;;;4.10;;
13408;SDS011;6775;49.574;11.170;2023-11-19T11:40:37;4.47;;;2.97;;
13408;SDS011;6775;49.574;11.170;2023-11-19T11:43:05;2.63;;;1.50;;
13408;SDS011;6775;49.574;11.170;2023-11-19T11:49:24;3.43;;;1.80;;
13408;SDS011;6775;49.574;11.170;2023-11-19T11:52:00;4.77;;;1.80;;
13408;SDS011;6775;49.574;11.170;2023-11-19T11:54:30;1.50;;;0.90;;
13408;SDS011;6775;49.574;11.170;2023-11-19T11:57:08;1.93;;;0.77;;
13408;SDS011;6775;49.574;11.170;2023-11-19T11:59:45;1.30;;;0.80;;
13408;SDS011;6775;49.574;11.170;2023-11-19T12:02:15;2.13;;;0.90;;
13408;SDS011;6775;49.574;11.170;2023-11-19T12:04:48;2.23;;;0.87;;
13408;SDS011;6775;49.574;11.170;2023-11-19T12:07:20;1.17;;;1.00;;
13408;SDS011;6775;49.574;11.170;2023-11-19T12:09:51;1.23;;;0.70;;
13408;SDS011;6775;49.574;11.170;2023-11-19T12:12:23;2.00;;;1.00;;
13408;SDS011;6775;49.574;11.170;2023-11-19T12:15:01;1.47;;;0.90;;
13408;SDS011;6775;49.574;11.170;2023-11-19T12:17:55;1.40;;;1.10;;
13408;SDS011;6775;49.574;11.170;2023-11-19T12:20:42;1.30;;;1.17;;
13408;SDS011;6775;49.574;11.170;2023-11-19T12:23:30;2.43;;;1.53;;
13408;SDS011;6775;49.574;11.170;2023-11-19T12:26:30;3.10;;;2.30;;
13408;SDS011;6775;49.574;11.170;2023-11-19T12:29:21;4.53;;;2.97;;
13408;SDS011;6775;49.574;11.170;2023-11-19T12:32:08;6.13;;;3.13;;
13408;SDS011;6775;49.574;11.170;2023-11-19T12:34:58;5.70;;;3.73;;
13408;SDS011;6775;49.574;11.170;2023-11-19T12:37:45;6.23;;;3.93;;
13408;SDS011;6775;49.574;11.170;2023-11-19T12:40:35;3.17;;;1.90;;
13408;SDS011;6775;49.574;11.170;2023-11-19T12:43:22;3.70;;;1.27;;
13408;SDS011;6775;49.574;11.170;2023-11-19T12:46:03;1.10;;;1.00;;
13408;SDS011;6775;49.574;11.170;2023-11-19T12:49:03;1.70;;;0.80;;
13408;SDS011;6775;49.574;11.170;2023-11-19T12:51:50;0.60;;;0.60;;
13408;SDS011;6775;49.574;11.170;2023-11-19T12:54:37;0.63;;;0.63;;
13408;SDS011;6775;49.574;11.170;2023-11-19T12:57:36;1.20;;;0.63;;
13408;SDS011;6775;49.574;11.170;2023-11-19T13:00:18;1.23;;;0.70;;
13408;SDS011;6775;49.574;11.170;2023-11-19T13:02:50;2.13;;;0.60;;
13408;SDS011;6775;49.574;11.170;2023-11-19T13:05:21;0.80;;;0.70;;
13408;SDS011;6775;49.574;11.170;2023-11-19T13:07:57;0.90;;;0.70;;
13408;SDS011;6775;49.574;11.170;2023-11-19T13:10:27;0.93;;;0.70;;
13408;SDS011;6775;49.574;11.170;2023-11-19T13:13:03;1.83;;;1.70;;
13408;SDS011;6775;49.574;11.170;2023-11-19T13:15:33;1.63;;;1.27;;
13408;SDS011;6775;49.574;11.170;2023-11-19T13:18:02;2.40;;;1.83;;
13408;SDS011;6775;49.574;11.170;2023-11-19T13:20:30;1.43;;;1.33;;
13408;SDS011;6775;49.574;11.170;2023-11-19T13:22:59;1.30;;;1.20;;
13408;SDS011;6775;49.574;11.170;2023-11-19T13:25:30;1.63;;;1.30;;
13408;SDS011;6775;49.574;11.170;2023-11-19T13:27:59;1.43;;;1.33;;
13408;SDS011;6775;49.574;11.170;2023-11-19T13:30:28;1.30;;;1.20;;
13408;SDS011;6775;49.574;11.170;2023-11-19T13:32:57;1.37;;;1.20;;
13408;SDS011;6775;49.574;11.170;2023-11-19T13:35:25;1.60;;;1.40;;
13408;SDS011;6775;49.574;11.170;2023-11-19T13:37:54;1.43;;;1.23;;
13408;SDS011;6775;49.574;11.170;2023-11-19T13:40:22;1.63;;;0.97;;
13408;SDS011;6775;49.574;11.170;2023-11-19T13:42:51;1.00;;;0.90;;
13408;SDS011;6775;49.574;11.170;2023-11-19T13:45:19;1.50;;;1.10;;
13408;SDS011;6775;49.574;11.170;2023-11-19T13:47:48;2.57;;;1.10;;
13408;SDS011;6775;49.574;11.170;2023-11-19T13:50:17;1.40;;;1.30;;
13408;SDS011;6775;49.574;11.170;2023-11-19T13:52:45;1.00;;;0.90;;
13408;SDS011;6775;49.574;11.170;2023-11-19T13:55:14;1.47;;;1.27;;
13408;SDS011;6775;49.574;11.170;2023-11-19T13:57:42;1.30;;;1.20;;
13408;SDS011;6775;49.574;11.170;2023-11-19T14:00:11;1.00;;;0.80;;
13408;SDS011;6775;49.574;11.170;2023-11-19T14:02:42;0.80;;;0.80;;
13408;SDS011;6775;49.574;11.170;2023-11-19T14:05:12;1.87;;;1.10;;
13408;SDS011;6775;49.574;11.170;2023-11-19T14:07:43;1.40;;;0.90;;
13408;SDS011;6775;49.574;11.170;2023-11-19T14:10:14;1.30;;;0.90;;
13408;SDS011;6775;49.574;11.170;2023-11-19T14:12:42;0.70;;;0.70;;
13408;SDS011;6775;49.574;11.170;2023-11-19T14:15:11;1.37;;;0.87;;
13408;SDS011;6775;49.574;11.170;2023-11-19T14:17:40;1.07;;;1.07;;
13408;SDS011;6775;49.574;11.170;2023-11-19T14:20:08;1.93;;;0.90;;
13408;SDS011;6775;49.574;11.170;2023-11-19T14:22:41;1.00;;;0.77;;
13408;SDS011;6775;49.574;11.170;2023-11-19T14:25:10;0.67;;;0.67;;
13408;SDS011;6775;49.574;11.170;2023-11-19T14:27:39;2.30;;;0.70;;
13408;SDS011;6775;49.574;11.170;2023-11-19T14:30:09;0.70;;;0.67;;
13408;SDS011;6775;49.574;11.170;2023-11-19T14:32:41;1.00;;;0.70;;
13408;SDS011;6775;49.574;11.170;2023-11-19T14:35:12;1.43;;;0.90;;
13408;SDS011;6775;49.574;11.170;2023-11-19T14:37:41;1.20;;;0.90;;
13408;SDS011;6775;49.574;11.170;2023-11-19T14:40:10;2.40;;;1.23;;
13408;SDS011;6775;49.574;11.170;2023-11-19T14:42:39;1.60;;;1.10;;
13408;SDS011;6775;49.574;11.170;2023-11-19T14:45:07;1.53;;;1.10;;
13408;SDS011;6775;49.574;11.170;2023-11-19T14:47:38;1.97;;;1.20;;
13408;SDS011;6775;49.574;11.170;2023-11-19T14:50:07;1.17;;;1.07;;
13408;SDS011;6775;49.574;11.170;2023-11-19T14:52:35;1.53;;;1.20;;
13408;SDS011;6775;49.574;11.170;2023-11-19T14:55:05;1.10;;;1.00;;
13408;SDS011;6775;49.574;11.170;2023-11-19T14:57:35;1.60;;;1.40;;
13408;SDS011;6775;49.574;11.170;2023-11-19T15:00:05;1.53;;;1.40;;
13408;SDS011;6775;49.574;11.170;2023-11-19T15:02:39;1.30;;;1.20;;
13408;SDS011;6775;49.574;11.170;2023-11-19T15:05:08;2.03;;;1.50;;
13408;SDS011;6775;49.574;11.170;2023-11-19T15:07:37;1.57;;;1.20;;
13408;SDS011;6775;49.574;11.170;2023-11-19T15:10:07;4.77;;;3.43;;
13408;SDS011;6775;49.574;11.170;2023-11-19T15:12:37;4.40;;;3.37;;
13408;SDS011;6775;49.574;11.170;2023-11-19T15:15:08;8.03;;;4.47;;